createdAt,value
2023-02-18T00:02:34.079Z,4.80
2023-02-18T00:07:38.324Z,4.47
2023-02-18T00:12:41.722Z,4.00
2023-02-18T00:17:43.840Z,4.10
2023-02-18T00:22:45.968Z,3.80
2023-02-18T00:27:48.201Z,3.53
2023-02-18T00:32:50.297Z,3.53
2023-02-18T00:37:53.575Z,3.83
2023-02-18T00:42:55.794Z,3.37
2023-02-18T00:47:58.038Z,3.30
2023-02-18T00:53:00.449Z,3.23
2023-02-18T00:58:02.742Z,3.23
2023-02-18T01:03:07.737Z,4.27
2023-02-18T01:08:12.218Z,3.47
2023-02-18T01:13:16.323Z,3.10
2023-02-18T01:18:20.653Z,2.83
2023-02-18T01:23:24.220Z,2.50
2023-02-18T01:28:26.965Z,2.47
2023-02-18T01:33:29.233Z,2.80
2023-02-18T01:38:31.600Z,2.10
2023-02-18T01:43:35.107Z,2.10
2023-02-18T01:48:49.568Z,1.97
2023-02-18T01:54:03.694Z,2.40
2023-02-18T01:59:16.857Z,2.33
2023-02-18T02:04:21.573Z,2.10
2023-02-18T02:09:27.135Z,1.80
2023-02-18T02:14:36.155Z,2.07
2023-02-18T02:19:51.459Z,2.57
2023-02-18T02:25:13.705Z,2.00
2023-02-18T02:31:03.772Z,2.47
2023-02-18T02:36:52.143Z,2.27
2023-02-18T02:42:09.451Z,2.00
2023-02-18T02:47:57.933Z,1.77
2023-02-18T02:53:08.345Z,2.00
2023-02-18T02:58:17.925Z,1.67
2023-02-18T03:03:57.181Z,1.70
2023-02-18T03:09:41.469Z,1.77
2023-02-18T03:15:09.255Z,1.40
2023-02-18T03:20:28.308Z,1.87
2023-02-18T03:25:34.839Z,1.40
2023-02-18T03:31:00.010Z,2.00
2023-02-18T03:36:02.661Z,1.60
2023-02-18T03:41:06.592Z,1.90
2023-02-18T03:46:10.598Z,2.07
2023-02-18T03:51:13.246Z,1.27
2023-02-18T03:56:15.972Z,1.80
2023-02-18T04:01:18.439Z,1.20
2023-02-18T04:06:20.768Z,1.80
2023-02-18T04:11:23.197Z,1.63
2023-02-18T04:16:25.543Z,1.43
2023-02-18T04:21:28.465Z,1.33
2023-02-18T04:26:30.860Z,1.53
2023-02-18T04:31:33.261Z,1.10
2023-02-18T04:36:35.606Z,1.10
2023-02-18T04:41:37.891Z,1.60
2023-02-18T04:46:40.198Z,1.00
2023-02-18T04:51:42.490Z,1.10
2023-02-18T04:56:44.752Z,1.00
2023-02-18T05:01:47.033Z,0.93
2023-02-18T05:06:49.305Z,1.30
2023-02-18T05:11:51.833Z,1.30
2023-02-18T05:16:54.371Z,1.10
2023-02-18T05:21:56.735Z,1.33
2023-02-18T05:26:58.990Z,1.30
2023-02-18T05:32:01.283Z,1.00
2023-02-18T05:37:03.611Z,1.87
2023-02-18T05:42:05.975Z,1.23
2023-02-18T05:47:12.028Z,1.00
2023-02-18T05:52:14.382Z,1.27
2023-02-18T05:57:16.666Z,1.10
2023-02-18T06:02:19.009Z,1.40
2023-02-18T06:07:21.330Z,0.90
2023-02-18T06:12:23.662Z,0.97
2023-02-18T06:17:25.914Z,1.17
2023-02-18T06:22:28.186Z,1.30
2023-02-18T06:27:30.489Z,0.93
2023-02-18T06:32:32.760Z,0.93
2023-02-18T06:37:35.071Z,0.70
2023-02-18T06:42:37.277Z,0.90
2023-02-18T06:47:39.433Z,1.00
2023-02-18T06:52:41.788Z,0.90
2023-02-18T06:57:44.060Z,0.93
2023-02-18T07:02:46.260Z,1.00
2023-02-18T07:07:48.377Z,0.80
2023-02-18T07:12:50.774Z,0.87
2023-02-18T07:17:53.716Z,1.00
2023-02-18T07:22:56.334Z,1.10
2023-02-18T07:27:58.648Z,0.80
2023-02-18T07:33:03.665Z,0.60
2023-02-18T07:38:06.085Z,0.90
2023-02-18T07:43:08.387Z,0.90
2023-02-18T07:48:10.952Z,0.80
2023-02-18T07:53:16.009Z,0.80
2023-02-18T07:58:47.695Z,0.70
2023-02-18T08:03:49.942Z,0.97
2023-02-18T08:08:52.212Z,0.90
2023-02-18T08:13:54.442Z,0.63
2023-02-18T08:18:57.340Z,1.17
2023-02-18T08:24:00.765Z,1.20
2023-02-18T08:29:03.105Z,0.80
2023-02-18T08:34:05.357Z,1.37
2023-02-18T08:39:07.638Z,1.23
2023-02-18T08:44:09.786Z,1.10
2023-02-18T08:49:12.011Z,1.63
2023-02-18T08:54:14.446Z,1.47
2023-02-18T08:59:16.708Z,1.30
2023-02-18T09:04:21.294Z,1.23
2023-02-18T09:09:23.680Z,0.90
2023-02-18T09:14:25.870Z,1.33
2023-02-18T09:19:28.109Z,1.23
2023-02-18T09:24:30.378Z,1.00
2023-02-18T09:29:34.197Z,1.60
2023-02-18T09:34:37.013Z,1.43
2023-02-18T09:39:39.135Z,1.10
2023-02-18T09:44:53.814Z,1.20
2023-02-18T09:50:04.467Z,1.20
2023-02-18T09:55:28.752Z,1.40
2023-02-18T10:00:48.459Z,1.20
2023-02-18T10:06:10.151Z,2.03
2023-02-18T10:11:32.622Z,1.07
2023-02-18T10:16:34.949Z,1.20
2023-02-18T10:21:37.538Z,1.43
2023-02-18T10:26:40.553Z,1.30
2023-02-18T10:31:57.953Z,1.40
2023-02-18T10:37:34.603Z,1.13
2023-02-18T10:42:55.080Z,1.70
2023-02-18T10:48:27.438Z,1.50
2023-02-18T10:53:36.611Z,1.07
2023-02-18T10:58:47.982Z,1.30
2023-02-18T11:04:11.520Z,1.00
2023-02-18T11:09:43.968Z,1.20
2023-02-18T11:15:03.328Z,1.20
2023-02-18T11:20:30.407Z,1.10
2023-02-18T11:25:36.684Z,1.40
2023-02-18T11:30:42.694Z,1.47
2023-02-18T11:35:57.901Z,1.20
2023-02-18T11:41:15.611Z,1.30
2023-02-18T11:46:24.711Z,1.43
2023-02-18T11:51:36.777Z,1.10
2023-02-18T11:56:39.268Z,1.20
2023-02-18T12:01:51.587Z,1.30
2023-02-18T12:07:19.608Z,1.10
2023-02-18T12:12:47.858Z,1.37
2023-02-18T12:18:20.341Z,1.33
2023-02-18T12:23:52.120Z,1.70
2023-02-18T12:29:31.351Z,1.00
2023-02-18T12:35:01.781Z,1.20
2023-02-18T12:40:28.773Z,1.10
2023-02-18T12:45:52.789Z,1.00
2023-02-18T12:51:23.094Z,1.20
2023-02-18T12:57:07.099Z,1.20
2023-02-18T13:02:56.828Z,0.93
2023-02-18T13:08:47.829Z,1.30
2023-02-18T13:14:01.084Z,1.30
2023-02-18T13:19:44.307Z,1.20
2023-02-18T13:24:49.857Z,1.20
2023-02-18T13:30:20.085Z,1.67
2023-02-18T13:35:38.520Z,1.30
2023-02-18T13:40:41.433Z,1.23
2023-02-18T13:45:43.695Z,1.37
2023-02-18T13:50:45.794Z,1.40
2023-02-18T13:56:17.393Z,1.00
2023-02-18T14:01:44.687Z,1.30
2023-02-18T14:07:25.168Z,1.10
2023-02-18T14:12:57.738Z,1.10
2023-02-18T14:18:15.020Z,1.10
2023-02-18T14:23:23.510Z,1.63
2023-02-18T14:28:35.078Z,1.03
2023-02-18T14:33:40.487Z,1.13
2023-02-18T14:38:50.686Z,1.27
2023-02-18T14:44:25.442Z,1.40
2023-02-18T14:49:42.869Z,1.20
2023-02-18T14:54:47.012Z,1.00
2023-02-18T14:59:49.316Z,1.60
2023-02-18T15:04:51.591Z,0.77
2023-02-18T15:09:55.860Z,0.90
2023-02-18T15:15:04.098Z,1.10
2023-02-18T15:20:08.091Z,1.27
2023-02-18T15:25:14.342Z,1.30
2023-02-18T15:30:29.243Z,1.20
2023-02-18T15:35:33.674Z,1.40
2023-02-18T15:40:40.678Z,1.10
2023-02-18T15:45:46.351Z,1.47
2023-02-18T15:51:02.736Z,1.07
2023-02-18T15:56:18.668Z,1.00
2023-02-18T16:01:29.965Z,1.33
2023-02-18T16:06:38.811Z,1.37
2023-02-18T16:11:57.035Z,1.10
2023-02-18T16:17:22.826Z,1.53
2023-02-18T16:22:37.729Z,1.30
2023-02-18T16:27:53.245Z,1.33
2023-02-18T16:32:58.042Z,1.37
2023-02-18T16:38:00.773Z,1.40
2023-02-18T16:43:22.079Z,1.57
2023-02-18T16:48:31.203Z,1.33
2023-02-18T16:53:33.610Z,1.33
2023-02-18T16:58:35.782Z,1.80
2023-02-18T17:03:38.132Z,1.60
2023-02-18T17:08:40.423Z,1.77
2023-02-18T17:13:42.778Z,2.00
2023-02-18T17:18:46.010Z,1.97
2023-02-18T17:23:49.638Z,1.80
2023-02-18T17:28:54.072Z,1.97
2023-02-18T17:33:59.847Z,2.33
2023-02-18T17:39:02.926Z,1.90
2023-02-18T17:44:21.178Z,1.77
2023-02-18T17:49:23.430Z,2.17
2023-02-18T17:54:28.127Z,1.90
2023-02-18T17:59:30.660Z,1.70
2023-02-18T18:04:33.022Z,2.07
2023-02-18T18:09:35.136Z,1.90
2023-02-18T18:14:37.391Z,1.93
2023-02-18T18:19:41.099Z,2.00
2023-02-18T18:24:43.569Z,1.97
2023-02-18T18:29:45.867Z,1.60
2023-02-18T18:34:49.368Z,1.50
2023-02-18T18:39:52.023Z,1.77
2023-02-18T18:44:55.084Z,1.60
2023-02-18T18:49:57.144Z,1.47
2023-02-18T18:54:59.427Z,1.70
2023-02-18T19:00:01.698Z,1.77
2023-02-18T19:05:05.017Z,1.53
2023-02-18T19:10:07.748Z,1.63
2023-02-18T19:15:19.910Z,1.90
2023-02-18T19:20:35.902Z,1.80
2023-02-18T19:25:39.488Z,1.63
2023-02-18T19:30:42.514Z,1.50
2023-02-18T19:35:44.963Z,1.70
2023-02-18T19:40:47.982Z,1.77
2023-02-18T19:45:50.251Z,2.07
2023-02-18T19:50:54.629Z,1.77
2023-02-18T19:56:02.655Z,1.90
2023-02-18T20:01:10.317Z,1.90
2023-02-18T20:06:21.001Z,2.50
2023-02-18T20:11:23.327Z,2.27
2023-02-18T20:16:25.534Z,2.50
2023-02-18T20:21:28.254Z,2.87
2023-02-18T20:26:30.406Z,2.27
2023-02-18T20:31:33.188Z,2.80
2023-02-18T20:36:35.543Z,2.67
2023-02-18T20:41:37.877Z,2.70
2023-02-18T20:46:40.194Z,2.97
2023-02-18T20:51:46.090Z,3.10
2023-02-18T20:56:51.503Z,2.63
2023-02-18T21:01:53.804Z,3.13
2023-02-18T21:06:56.035Z,2.90
2023-02-18T21:11:58.140Z,3.37
2023-02-18T21:17:00.293Z,2.80
2023-02-18T21:22:02.448Z,2.53
2023-02-18T21:27:04.743Z,2.93
2023-02-18T21:32:08.049Z,3.00
2023-02-18T21:37:10.421Z,2.43
2023-02-18T21:42:12.505Z,2.40
2023-02-18T21:47:14.593Z,2.73
2023-02-18T21:52:16.774Z,2.77
2023-02-18T21:57:22.047Z,2.53
2023-02-18T22:02:28.309Z,2.50
2023-02-18T22:07:30.808Z,2.90
2023-02-18T22:12:33.978Z,2.97
2023-02-18T22:17:36.308Z,2.10
2023-02-18T22:22:38.491Z,2.43
2023-02-18T22:27:40.571Z,2.70
2023-02-18T22:32:42.719Z,2.60
2023-02-18T22:37:44.828Z,2.57
2023-02-18T22:42:46.964Z,2.90
2023-02-18T22:47:49.086Z,2.83
2023-02-18T22:52:51.333Z,2.20
2023-02-18T22:57:53.605Z,2.53
2023-02-18T23:02:55.793Z,2.10
2023-02-18T23:07:57.934Z,2.43
2023-02-18T23:13:00.086Z,2.10
2023-02-18T23:18:02.254Z,2.67
2023-02-18T23:23:04.374Z,2.30
2023-02-18T23:28:06.520Z,2.40
2023-02-18T23:33:08.644Z,2.37
2023-02-18T23:38:10.885Z,2.13
2023-02-18T23:43:13.145Z,2.30
2023-02-18T23:48:15.643Z,2.20
2023-02-18T23:53:17.886Z,2.10
2023-02-18T23:58:20.109Z,2.20
